Ilwaco, Washington
Current Conditions -  °F | °C
As of 1:55 AM on Saturday 25 Oct 2014 (Local Time) from KAST Reporting Station
Overcast Overcast  
Wind Chill: 56°   Ceiling: 6000
Heat Index: 56°   Visibility: 10mi
Dew Point: 49°   Wind: 6mph
Humidity: 77%   Direction: 120°ESE
Pressure: 29.57"   Gusts: NA
Location:  46.31°N, 124.04°W
Report Text: KAST 250855Z AUTO 12005KT 10SM OVC060 13/09 A2957 RMK AO2 SLP013 T01330094 58026
Loading
Personal Weather Stations






























Interactive Weather Map
Tropical Storm Tracking
New forecast layout! Learn more

10-Day Weather Forecast

Advertisements
Track Severe Weather on mobile